Terminal Aerodrome Forecast
Issued by NWS

Home | Current Version | Previous Version | Text Only | Print | Product List | Glossary On
Versions: 1 2 3 4 5 6 7 8 9 10 11 12 13 14 15
424
FTUS46 KSGX 092104 AAA
TAFONT
TAF AMD
KONT 092104Z 0921/1024 VRB06KT P6SM SKC WS020/08020KT
     FM102300 VRB05KT P6SM SKC=

USA.gov is the U.S. government's official web portal to all federal, state and local government web resources and services.